Republic, Washington
Current Conditions -  °F | °C
As of 2:53 PM on Thursday 18 Dec 2014 (Local Time) from KOMK Reporting Station
Overcast Overcast  
Wind Chill: 33°   Ceiling: 2000
Heat Index: 37°   Visibility: 10mi
Dew Point: 35°   Wind: 5mph
Humidity: 93%   Direction: 220°SW
Pressure: 29.98"   Gusts: NA
Location:  48.65°N, 118.74°W
Report Text: KOMK 182253Z AUTO 22004KT 10SM OVC020 03/02 A2998 RMK AO2 SLP164 T00280017
Loading
Personal Weather Stations






























Interactive Weather Map New forecast layout! Learn more

10-Day Weather Forecast

Advertisements
Track Severe Weather on mobile